Latest Weather Observations for Kanagulk

IDV60801

Issued at 12:22 pm EST Saturday 1 October 2022 (issued every 10 minutes, with the page automatically refreshed every 10 minutes)

About weather observations | Map of weather stations | Latest weather observations for VIC | Other Formats
Station Details ID: 079097 Name: KANAGULK Lat: -37.12 Lon: 141.80 Height: 188.8 m
Data from the previous 72 hours. | See also: Recent months at Kanagulk
Date/Time
EST
Temp
°C
App
Temp
°C
Dew
Point
°C
Rel
Hum
%
Delta-T
°C
Wind Press
QNH
hPa
Press
MSL
hPa
Rain since
9am
mm
Dir  Spd
km/h
Gust
km/h
Spd
kts
Gust
kts
01/12:00pm 18.4 16.4 8.7 53 5.1 NNE 9 17 5 9 1022.8 1022.8 0.0
01/11:30am 18.0 16.0 10.1 60 4.2 NE 11 17 6 9 1023.1 1023.1 0.0
01/11:00am 17.4 15.7 9.8 61 4.0 NE 9 15 5 8 1023.4 1023.4 0.0
01/10:30am 17.1 15.4 10.0 63 3.8 NE 9 15 5 8 1023.9 1023.9 0.0
01/10:00am 16.4 14.3 9.6 64 3.6 NE 11 15 6 8 1024.1 1024.1 0.0
01/09:30am 15.4 14.8 10.4 72 2.7 SE 4 7 2 4 1024.6 1024.7 0.0
01/09:00am 13.5 12.4 10.5 82 1.6 SSE 7 9 4 5 1024.9 1025.0 0.0
01/08:30am 12.4 10.8 10.1 86 1.2 SSE 9 13 5 7 1024.9 1025.0 0.0
01/08:00am 11.2 9.9 9.8 91 0.7 SSE 7 11 4 6 1024.8 1024.9 0.0
01/07:30am 9.7 8.3 8.9 95 0.4 SSE 6 9 3 5 1024.7 1024.8 0.0
01/07:00am 7.8 5.4 7.2 96 0.3 SSE 9 11 5 6 1024.6 1024.7 0.0
01/06:30am 6.8 4.6 6.2 96 0.3 SSE 7 7 4 4 1024.4 1024.5 0.0
01/06:00am 6.6 4.4 6.0 96 0.3 SSE 7 9 4 5 1023.9 1024.1 0.0
01/05:30am 6.5 3.8 5.8 95 0.3 SSE 9 9 5 5 1023.6 1023.8 0.0
01/05:00am 7.3 6.1 6.6 95 0.3 SSE 2 7 1 4 1023.6 1023.8 0.0
01/04:30am 7.3 4.8 6.6 95 0.3 SSE 9 11 5 6 1023.6 1023.8 0.0
01/04:00am 7.6 5.1 6.7 94 0.4 SSE 9 13 5 7 1023.7 1023.9 0.0
01/03:30am 7.8 5.0 6.9 94 0.4 SSE 11 13 6 7 1023.9 1024.1 0.0
01/03:00am 8.3 6.4 7.4 94 0.4 SSE 7 11 4 6 1024.0 1024.2 0.0
01/02:30am 8.5 5.8 7.4 93 0.5 SSE 11 13 6 7 1024.4 1024.5 0.0
01/02:00am 9.1 6.2 8.0 93 0.5 SSE 13 15 7 8 1024.6 1024.7 0.0
01/01:30am 9.4 6.9 8.3 93 0.5 SE 11 15 6 8 1024.9 1025.0 0.0
01/01:00am 9.7 7.7 8.8 94 0.4 SSE 9 11 5 6 1025.2 1025.3 0.0
01/12:30am 9.0 6.9 8.1 94 0.4 SSE 9 11 5 6 1025.3 1025.4 0.0
01/12:00am 9.0 6.8 7.9 93 0.5 SSE 9 11 5 6 1025.5 1025.6 0.0
 
Date/Time
EST
Temp
°C
App
Temp
°C
Dew
Point
°C
Rel
Hum
%
Delta-T
°C
Wind Press
QNH
hPa
Press
MSL
hPa
Rain since
9am
mm
Dir  Spd
km/h
Gust
km/h
Spd
kts
Gust
kts
30/11:30pm 9.6 7.1 8.4 92 0.6 SSE 11 13 6 7 1025.4 1025.5 0.0
30/11:00pm 9.1 6.9 7.9 92 0.6 SSE 9 13 5 7 1025.4 1025.5 0.0
30/10:30pm 9.8 7.3 8.4 91 0.7 SSE 11 13 6 7 1025.4 1025.5 0.0
30/10:00pm 9.8 7.3 8.4 91 0.7 SSE 11 13 6 7 1025.3 1025.4 0.0
30/09:30pm 9.9 7.8 8.3 90 0.8 SSE 9 11 5 6 1025.4 1025.5 0.0
30/09:00pm 10.5 8.5 8.6 88 0.9 SSE 9 9 5 5 1025.4 1025.5 0.0
30/08:30pm 11.2 9.3 9.1 87 1.1 SSE 9 13 5 7 1025.2 1025.3 0.0
30/08:00pm 11.9 10.1 9.5 85 1.2 SSE 9 13 5 7 1025.1 1025.2 0.0
30/07:30pm 13.0 11.0 10.0 82 1.6 SSE 11 15 6 8 1024.8 1024.9 0.0
30/07:00pm 14.0 11.3 10.4 79 1.9 SSE 15 20 8 11 1024.7 1024.8 0.0
30/06:30pm 14.6 11.6 10.6 77 2.1 SSE 17 20 9 11 1024.8 1024.9 0.0
30/06:00pm 15.6 12.2 10.6 72 2.7 SSE 19 26 10 14 1024.8 1024.9 0.0
30/05:30pm 16.7 13.6 10.3 66 3.4 SSE 17 22 9 12 1024.7 1024.8 0.0
30/05:00pm 17.3 14.2 10.4 64 3.7 SSE 17 20 9 11 1024.5 1024.6 0.0
30/04:30pm 18.0 15.7 10.4 61 4.1 S 13 20 7 11 1024.5 1024.6 0.0
30/04:00pm 18.2 16.6 10.3 60 4.2 SSE 9 15 5 8 1024.7 1024.8 0.0
30/03:30pm 17.8 15.6 10.7 63 3.8 SSE 13 17 7 9 1025.0 1025.1 0.0
30/03:00pm 18.9 17.3 8.0 49 5.6 SSE 6 11 3 6 1025.2 1025.3 0.0
30/02:30pm 18.3 16.4 9.1 55 4.8 SSE 9 15 5 8 1025.5 1025.6 0.0
30/02:00pm 18.0 16.4 8.8 55 4.8 SSE 7 13 4 7 1025.6 1025.7 0.0
30/01:30pm 17.8 16.7 8.4 54 4.9 SSW 4 13 2 7 1026.0 1026.1 0.0
30/01:00pm 17.9 16.6 9.3 57 4.5 E 6 11 3 6 1026.3 1026.5 0.0
30/12:30pm 16.7 15.2 9.1 61 4.0 SSE 7 11 4 6 1026.8 1027.0 0.0
30/12:00pm 17.3 15.8 8.4 56 4.6 E 6 11 3 6 1027.1 1027.3 0.0
30/11:30am 16.8 15.4 8.8 59 4.2 N 6 17 3 9 1027.2 1027.4 0.0
30/11:00am 16.1 13.7 8.6 61 3.8 ENE 11 15 6 8 1027.5 1027.7 0.0
30/10:30am 15.2 13.0 7.7 61 3.8 E 9 15 5 8 1027.7 1027.9 0.0
30/10:00am 14.9 12.5 8.6 66 3.2 ESE 11 19 6 10 1027.8 1028.0 0.0
30/09:30am 13.8 11.0 8.4 70 2.7 SE 13 19 7 10 1028.0 1028.2 0.0
30/09:00am 12.8 9.3 8.7 76 2.1 SE 17 24 9 13 1027.9 1028.1 0.0
30/08:30am 11.5 7.9 8.4 81 1.5 SE 17 22 9 12 1028.0 1028.2 0.0
30/08:00am 10.9 7.3 8.3 84 1.3 SSE 17 24 9 13 1027.6 1027.8 0.0
30/07:30am 9.6 6.2 7.7 88 0.9 SSE 15 22 8 12 1027.3 1027.5 0.0
30/07:00am 8.7 5.6 7.3 91 0.7 SSE 13 19 7 10 1027.0 1027.2 0.0
30/06:30am 8.1 4.5 6.9 92 0.6 SSE 15 19 8 10 1026.6 1026.8 0.0
30/06:00am 8.0 4.4 6.8 92 0.6 SSE 15 19 8 10 1026.4 1026.6 0.0
30/05:30am 8.0 4.8 6.9 93 0.5 SSE 13 17 7 9 1026.1 1026.2 0.0
30/05:00am 8.3 4.8 7.4 94 0.4 S 15 20 8 11 1025.8 1025.9 0.0
30/04:30am 8.3 4.9 7.5 95 0.4 S 15 20 8 11 1025.7 1025.8 0.0
30/04:00am 8.1 5.0 7.3 95 0.4 SSE 13 17 7 9 1025.6 1025.7 0.0
30/03:30am 8.1 5.1 7.5 96 0.3 S 13 17 7 9 1025.6 1025.7 0.0
30/03:00am 7.9 5.2 7.3 96 0.3 S 11 17 6 9 1025.9 1026.0 0.0
30/02:30am 8.1 5.4 7.3 95 0.4 S 11 13 6 7 1026.2 1026.4 0.0
30/02:00am 8.1 5.4 7.2 94 0.4 S 11 15 6 8 1026.4 1026.6 0.0
30/01:30am 8.3 6.0 7.4 94 0.4 S 9 15 5 8 1026.7 1026.9 0.0
30/01:00am 8.6 6.0 7.7 94 0.4 S 11 15 6 8 1026.9 1027.1 0.0
30/12:30am 8.6 5.9 7.5 93 0.5 S 11 15 6 8 1027.0 1027.2 0.0
30/12:00am 8.9 5.9 7.8 93 0.5 S 13 19 7 10 1027.2 1027.4 0.0
 
Date/Time
EST
Temp
°C
App
Temp
°C
Dew
Point
°C
Rel
Hum
%
Delta-T
°C
Wind Press
QNH
hPa
Press
MSL
hPa
Rain since
9am
mm
Dir  Spd
km/h
Gust
km/h
Spd
kts
Gust
kts
29/11:30pm 8.7 5.7 7.6 93 0.5 S 13 17 7 9 1027.4 1027.6 0.0
29/11:00pm 8.5 5.4 7.3 92 0.6 SSE 13 15 7 8 1027.5 1027.7 0.0
29/10:30pm 9.0 5.6 7.5 90 0.7 SSE 15 19 8 10 1027.7 1027.9 0.0
29/10:00pm 9.3 6.3 7.9 91 0.7 S 13 24 7 13 1027.9 1028.1 0.0
29/09:30pm 9.1 6.4 7.5 90 0.8 S 11 15 6 8 1027.8 1028.0 0.0
29/09:00pm 9.1 6.4 7.2 88 0.9 S 11 15 6 8 1027.4 1027.6 0.0
29/08:30pm 10.2 7.3 8.0 86 1.1 S 13 17 7 9 1027.3 1027.5 0.0
29/08:00pm 10.4 7.0 7.8 84 1.3 S 15 19 8 10 1026.9 1027.1 0.0
29/07:30pm 10.6 7.6 7.5 81 1.5 SSE 13 17 7 9 1026.7 1026.9 0.0
29/07:00pm 11.8 8.4 7.5 75 2.1 SSE 15 22 8 12 1026.4 1026.6 0.0
29/06:30pm 12.5 8.3 7.4 71 2.5 SSE 19 28 10 15 1026.1 1026.2 0.0
29/06:00pm 13.0 8.5 7.0 67 2.9 S 20 30 11 16 1025.9 1026.0 0.0
29/05:30pm 13.5 9.1 7.5 67 3.0 SSE 20 28 11 15 1025.7 1025.8 0.0
29/05:00pm 14.1 9.4 7.6 65 3.2 SE 22 33 12 18 1025.4 1025.5 0.0
29/04:30pm 14.4 10.3 8.6 68 3.0 SSE 20 32 11 17 1025.2 1025.3 0.0
29/04:00pm 15.2 11.2 8.9 66 3.2 SSE 20 30 11 16 1025.3 1025.4 0.0
29/03:30pm 14.0 9.5 8.6 70 2.7 SSE 22 33 12 18 1025.5 1025.6 0.0
29/03:00pm 14.9 10.8 8.8 67 3.1 S 20 28 11 15 1025.4 1025.5 0.0
29/02:30pm 14.7 10.3 8.9 68 3.0 SSE 22 30 12 16 1025.6 1025.7 0.0
29/02:00pm 14.5 10.0 8.7 68 2.9 SSE 22 35 12 19 1025.7 1025.8 0.0
29/01:30pm 13.9 9.9 8.9 72 2.6 SSE 20 33 11 18 1026.0 1026.1 0.0
29/01:00pm 14.0 9.8 8.4 69 2.8 SSE 20 32 11 17 1026.0 1026.1 0.0
29/12:30pm 14.6 10.6 9.2 70 2.8 SSE 20 30 11 16 1026.2 1026.4 0.0
29/12:00pm 13.6 9.2 8.9 73 2.4 SSE 22 30 12 16 1026.2 1026.4 0.0
29/11:30am 12.7 8.2 8.6 76 2.1 S 22 32 12 17 1026.3 1026.5 0.0
29/11:00am 12.8 8.1 9.1 78 1.9 SSE 24 32 13 17 1026.5 1026.7 0.0
29/10:30am 11.6 7.0 8.1 79 1.7 SSE 22 32 12 17 1026.8 1027.0 0.0
29/10:00am 11.6 7.3 7.9 78 1.8 SE 20 32 11 17 1027.0 1027.2 0.0
29/09:30am 11.1 6.9 7.6 79 1.7 SSE 19 32 10 17 1026.8 1027.0 0.0
29/09:00am 10.7 5.9 7.2 79 1.7 SSE 22 32 12 17 1026.4 1026.6 0.0
29/08:30am 9.9 5.5 7.2 83 1.3 SSE 20 28 11 15 1026.4 1026.6 0.0
29/08:00am 9.4 5.6 7.5 88 0.9 SSE 17 26 9 14 1026.2 1026.4 0.0
29/07:30am 9.1 5.3 7.4 89 0.8 SSE 17 24 9 13 1026.0 1026.1 0.0
29/07:00am 8.3 5.1 6.8 90 0.7 S 13 20 7 11 1025.6 1025.7 0.0
29/06:30am 8.1 4.7 5.9 86 1.0 S 13 19 7 10 1025.3 1025.4 0.0
29/06:00am 7.8 4.2 5.1 83 1.2 S 13 17 7 9 1024.8 1024.9 0.0
29/05:30am 7.9 4.3 5.0 82 1.3 SSE 13 22 7 12 1024.5 1024.6 0.0
29/05:00am 7.0 4.0 4.3 83 1.2 SSE 9 11 5 6 1024.4 1024.5 0.0
29/04:30am 8.1 3.6 4.1 76 1.8 SSE 17 24 9 13 1024.3 1024.4 0.0
29/04:00am 8.9 4.1 4.7 75 1.9 SSE 19 28 10 15 1024.3 1024.4 0.0
29/03:30am 8.9 4.9 4.7 75 1.9 S 15 20 8 11 1024.3 1024.4 0.0
29/03:00am 9.0 5.0 4.8 75 1.9 S 15 20 8 11 1024.5 1024.6 0.0
29/02:30am 9.1 5.2 5.3 77 1.7 SSE 15 19 8 10 1024.6 1024.7 0.0
29/02:00am 9.1 6.4 5.8 80 1.5 SSE 9 13 5 7 1024.7 1024.8 0.0
29/01:30am 9.3 5.8 5.5 77 1.7 S 13 17 7 9 1024.7 1024.8 0.0
29/01:00am 9.3 5.8 5.5 77 1.7 S 13 17 7 9 1024.7 1024.8 0.0
29/12:30am 9.3 5.1 5.5 77 1.7 S 17 20 9 11 1024.7 1024.8 0.0
29/12:00am 9.4 5.6 5.9 79 1.6 SSE 15 20 8 11 1024.6 1024.7 0.0
 
Date/Time
EST
Temp
°C
App
Temp
°C
Dew
Point
°C
Rel
Hum
%
Delta-T
°C
Wind Press
QNH
hPa
Press
MSL
hPa
Rain since
9am
mm
Dir  Spd
km/h
Gust
km/h
Spd
kts
Gust
kts
28/11:30pm 9.4 6.2 6.8 84 1.2 S 13 19 7 10 1024.5 1024.6 0.0
28/11:00pm 9.5 5.5 6.8 83 1.3 S 17 22 9 12 1024.4 1024.5 0.0
28/10:30pm 9.7 5.6 6.1 78 1.7 S 17 20 9 11 1024.4 1024.5 0.0
28/10:00pm 9.8 6.7 7.4 85 1.1 S 13 17 7 9 1024.3 1024.4 0.0
28/09:30pm 9.9 5.7 7.3 84 1.2 S 19 28 10 15 1024.1 1024.3 0.0
28/09:00pm 9.9 6.9 7.8 87 1.0 S 13 19 7 10 1024.1 1024.3 0.0
28/08:30pm 10.0 5.9 7.8 86 1.1 S 19 26 10 14 1024.0 1024.2 0.0
28/08:00pm 10.0 6.4 8.3 89 0.8 S 17 26 9 14 1023.6 1023.8 0.0
28/07:30pm 10.3 6.1 8.4 88 0.9 S 20 26 11 14 1023.4 1023.6 0.0
28/07:00pm 10.6 6.6 8.4 86 1.1 S 19 28 10 15 1022.8 1023.0 0.0
28/06:30pm 11.2 7.1 8.8 85 1.2 SSE 20 26 11 14 1022.5 1022.7 0.0
28/06:00pm 11.9 7.4 8.7 81 1.6 SSE 22 28 12 15 1022.1 1022.3 0.0
28/05:30pm 12.5 9.0 8.8 78 1.9 S 17 26 9 14 1021.7 1021.8 0.0
28/05:00pm 13.0 10.0 9.3 78 1.9 SSE 15 20 8 11 1021.5 1021.6 0.0
28/04:30pm 13.5 9.7 9.0 74 2.3 S 19 24 10 13 1021.3 1021.4 0.0
28/04:00pm 13.5 10.1 9.2 75 2.2 SSE 17 20 9 11 1021.2 1021.3 0.0
28/03:30pm 13.5 10.0 8.6 72 2.5 S 17 24 9 13 1021.1 1021.2 0.0
28/03:00pm 13.2 9.3 8.7 74 2.3 S 19 24 10 13 1021.2 1021.3 0.0
28/02:30pm 12.3 8.9 9.0 80 1.7 SSE 17 26 9 14 1021.3 1021.4 0.0
28/02:00pm 13.1 9.7 9.0 76 2.1 SSE 17 22 9 12 1021.2 1021.3 0.0
28/01:30pm 12.6 8.5 8.7 77 2.0 S 20 26 11 14 1021.3 1021.4 0.0
28/01:00pm 12.8 8.7 8.7 76 2.1 S 20 30 11 16 1021.3 1021.4 0.0
28/12:30pm 13.1 9.1 8.4 73 2.4 SSE 19 24 10 13 1021.4 1021.5 0.0

Other formats

Comma delimited format used in spreadsheet applications
http://www.bom.gov.au/fwo/IDV60801/IDV60801.95827.axf

JavaScript Object Notation format (JSON) in row-major order
http://www.bom.gov.au/fwo/IDV60801/IDV60801.95827.json

Data quality

Most of these data are generated automatically and are frequently updated. Quality checks on data are not normally performed. It is possible for incorrect values to appear. Refer to information at About Latest Weather Observations and please check the disclaimer before using these data.